createdAt,value
2022-11-25T00:00:10.313Z,11.07
2022-11-25T00:01:10.246Z,11.10
2022-11-25T00:02:10.266Z,11.02
2022-11-25T00:03:10.227Z,10.99
2022-11-25T00:04:10.070Z,11.02
2022-11-25T00:05:10.023Z,10.99
2022-11-25T00:06:09.954Z,11.02
2022-11-25T00:07:09.998Z,11.09
2022-11-25T00:08:10.018Z,11.09
2022-11-25T00:09:09.850Z,11.01
2022-11-25T00:10:09.728Z,11.02
2022-11-25T00:11:09.660Z,11.01
2022-11-25T00:12:09.609Z,11.01
2022-11-25T00:13:09.549Z,10.99
2022-11-25T00:14:09.489Z,10.99
2022-11-25T00:15:09.431Z,11.06
2022-11-25T00:16:09.422Z,10.99
2022-11-25T00:17:09.346Z,11.02
2022-11-25T00:18:09.268Z,11.02
2022-11-25T00:19:09.207Z,11.02
2022-11-25T00:20:09.145Z,10.99
2022-11-25T00:21:09.103Z,11.03
2022-11-25T00:22:09.030Z,11.01
2022-11-25T00:23:08.992Z,10.99
2022-11-25T00:24:08.918Z,11.02
2022-11-25T00:25:08.857Z,10.92
2022-11-25T00:26:08.799Z,10.99
2022-11-25T00:27:08.735Z,10.95
2022-11-25T00:28:08.677Z,10.92
2022-11-25T00:29:08.619Z,10.96
2022-11-25T00:30:08.570Z,10.98
2022-11-25T00:31:08.545Z,10.92
2022-11-25T00:32:08.615Z,10.98
2022-11-25T00:33:08.386Z,11.02
2022-11-25T00:34:08.331Z,10.92
2022-11-25T00:35:08.274Z,10.95
2022-11-25T00:36:08.221Z,10.96
2022-11-25T00:37:08.161Z,10.94
2022-11-25T00:38:08.102Z,10.96
2022-11-25T00:39:08.052Z,10.99
2022-11-25T00:40:07.986Z,10.94
2022-11-25T00:41:07.926Z,10.99
2022-11-25T00:42:07.866Z,10.96
2022-11-25T00:43:07.811Z,10.91
2022-11-25T00:44:07.756Z,10.88
2022-11-25T00:45:07.689Z,10.95
2022-11-25T00:46:07.689Z,10.88
2022-11-25T00:47:07.580Z,10.84
2022-11-25T00:48:07.523Z,10.84
2022-11-25T00:49:07.459Z,10.91
2022-11-25T00:50:07.406Z,10.89
2022-11-25T00:51:07.346Z,10.92
2022-11-25T00:52:07.290Z,10.84
2022-11-25T00:53:07.229Z,10.89
2022-11-25T00:54:07.167Z,10.84
2022-11-25T00:55:07.114Z,10.92
2022-11-25T00:56:07.057Z,10.89
2022-11-25T00:57:06.999Z,10.92
2022-11-25T00:58:06.935Z,10.81
2022-11-25T00:59:06.877Z,10.86
2022-11-25T01:00:06.823Z,10.86
2022-11-25T01:01:06.788Z,10.88
2022-11-25T01:02:06.776Z,10.86
2022-11-25T01:03:06.642Z,10.84
2022-11-25T01:04:06.598Z,10.88
2022-11-25T01:05:06.530Z,10.91
2022-11-25T01:06:06.473Z,10.80
2022-11-25T01:07:06.410Z,10.89
2022-11-25T01:08:06.354Z,10.94
2022-11-25T01:09:06.300Z,10.83
2022-11-25T01:10:06.243Z,10.86
2022-11-25T01:11:06.180Z,10.91
2022-11-25T01:12:06.124Z,10.81
2022-11-25T01:13:06.062Z,10.84
2022-11-25T01:14:06.010Z,10.88
2022-11-25T01:15:05.954Z,10.86
2022-11-25T01:16:05.951Z,10.84
2022-11-25T01:17:05.849Z,10.86
2022-11-25T01:18:05.776Z,10.81
2022-11-25T01:19:05.719Z,10.78
2022-11-25T01:20:05.664Z,10.78
2022-11-25T01:21:05.603Z,10.80
2022-11-25T01:22:05.545Z,10.78
2022-11-25T01:23:05.484Z,10.78
2022-11-25T01:24:05.438Z,10.78
2022-11-25T01:25:05.369Z,10.81
2022-11-25T01:26:05.311Z,10.81
2022-11-25T01:27:05.249Z,10.77
2022-11-25T01:28:05.196Z,10.77
2022-11-25T01:29:05.131Z,10.74
2022-11-25T01:30:05.077Z,10.78
2022-11-25T01:31:05.021Z,10.74
2022-11-25T01:32:11.534Z,10.81
2022-11-25T01:33:04.902Z,10.78
2022-11-25T01:34:04.842Z,10.78
2022-11-25T01:35:04.782Z,10.77
2022-11-25T01:36:04.739Z,10.80
2022-11-25T01:37:11.540Z,10.76
2022-11-25T01:38:04.628Z,10.80
2022-11-25T01:39:04.552Z,10.76
2022-11-25T01:40:04.505Z,10.77
2022-11-25T01:41:04.446Z,10.80
2022-11-25T01:42:04.383Z,10.73
2022-11-25T01:43:04.321Z,10.76
2022-11-25T01:44:04.269Z,10.76
2022-11-25T01:45:04.207Z,10.77
2022-11-25T01:46:04.219Z,10.78
2022-11-25T01:47:04.087Z,10.78
2022-11-25T01:48:04.031Z,10.77
2022-11-25T01:49:03.973Z,10.77
2022-11-25T01:50:03.913Z,10.76
2022-11-25T01:51:03.859Z,10.73
2022-11-25T01:52:03.814Z,10.73
2022-11-25T01:53:03.740Z,10.71
2022-11-25T01:54:03.678Z,10.78
2022-11-25T01:55:03.626Z,10.73
2022-11-25T01:56:03.566Z,10.76
2022-11-25T01:57:03.502Z,10.70
2022-11-25T01:58:03.455Z,10.73
2022-11-25T01:59:03.391Z,10.73
2022-11-25T02:00:03.334Z,10.74
2022-11-25T02:01:03.304Z,10.68
2022-11-25T02:02:03.308Z,10.71
2022-11-25T02:03:03.155Z,10.71
2022-11-25T02:04:03.100Z,10.71
2022-11-25T02:05:03.043Z,10.71
2022-11-25T02:06:02.981Z,10.71
2022-11-25T02:07:02.920Z,10.66
2022-11-25T02:08:02.874Z,10.68
2022-11-25T02:09:02.805Z,10.60
2022-11-25T02:10:02.753Z,10.65
2022-11-25T02:11:02.688Z,10.68
2022-11-25T02:12:02.630Z,10.68
2022-11-25T02:13:02.574Z,10.62
2022-11-25T02:14:02.523Z,10.62
2022-11-25T02:15:02.454Z,10.65
2022-11-25T02:16:02.460Z,10.70
2022-11-25T02:17:02.428Z,10.62
2022-11-25T02:18:02.397Z,10.65
2022-11-25T02:19:02.227Z,10.60
2022-11-25T02:20:02.169Z,10.62
2022-11-25T02:21:02.107Z,10.63
2022-11-25T02:22:02.058Z,10.58
2022-11-25T02:23:01.989Z,10.58
2022-11-25T02:24:01.946Z,10.65
2022-11-25T02:25:01.875Z,10.56
2022-11-25T02:26:01.818Z,10.56
2022-11-25T02:27:01.763Z,10.56
2022-11-25T02:28:01.705Z,10.55
2022-11-25T02:29:01.641Z,10.59
2022-11-25T02:30:01.587Z,10.60
2022-11-25T02:31:01.525Z,10.56
2022-11-25T02:32:01.504Z,10.66
2022-11-25T02:33:01.410Z,10.60
2022-11-25T02:34:01.352Z,10.63
2022-11-25T02:35:01.291Z,10.60
2022-11-25T02:36:01.238Z,10.58
2022-11-25T02:37:01.178Z,10.59
2022-11-25T02:38:01.119Z,10.59
2022-11-25T02:39:01.062Z,10.59
2022-11-25T02:40:01.008Z,10.56
2022-11-25T02:41:00.945Z,10.65
2022-11-25T02:42:00.891Z,10.53
2022-11-25T02:43:00.828Z,10.56
2022-11-25T02:44:00.766Z,10.62
2022-11-25T02:45:00.712Z,10.59
2022-11-25T02:46:00.729Z,10.60
2022-11-25T02:47:00.590Z,10.59
2022-11-25T02:48:00.537Z,10.63
2022-11-25T02:49:08.781Z,10.58
2022-11-25T02:50:00.418Z,10.60
2022-11-25T02:51:00.358Z,10.60
2022-11-25T02:52:00.306Z,10.53
2022-11-25T02:53:00.242Z,10.52
2022-11-25T02:54:00.184Z,10.52
2022-11-25T02:55:00.130Z,10.55
2022-11-25T02:56:00.085Z,10.53
2022-11-25T02:57:00.011Z,10.55
2022-11-25T02:57:59.952Z,10.55
2022-11-25T02:58:59.892Z,10.52
2022-11-25T02:59:59.840Z,10.51
2022-11-25T03:00:59.836Z,10.52
2022-11-25T03:01:59.756Z,10.51
2022-11-25T03:02:59.658Z,10.51
2022-11-25T03:03:59.611Z,10.51
2022-11-25T03:04:59.548Z,10.52
2022-11-25T03:05:59.484Z,10.58
2022-11-25T03:06:59.431Z,10.52
2022-11-25T03:07:59.368Z,10.55
2022-11-25T03:08:59.314Z,10.59
2022-11-25T03:09:59.259Z,10.62
2022-11-25T03:10:59.198Z,10.46
2022-11-25T03:11:59.143Z,10.58
2022-11-25T03:12:59.082Z,10.59
2022-11-25T03:13:59.016Z,10.56
2022-11-25T03:14:58.960Z,10.59
2022-11-25T03:15:58.905Z,10.62
2022-11-25T03:16:58.892Z,10.46
2022-11-25T03:17:58.788Z,10.55
2022-11-25T03:18:58.734Z,10.51
2022-11-25T03:19:58.665Z,10.52
2022-11-25T03:20:58.614Z,10.46
2022-11-25T03:21:58.556Z,10.59
2022-11-25T03:22:58.499Z,10.59
2022-11-25T03:23:58.431Z,10.43
2022-11-25T03:24:58.375Z,10.51
2022-11-25T03:25:58.321Z,10.46
2022-11-25T03:26:58.267Z,10.47
2022-11-25T03:27:58.209Z,10.46
2022-11-25T03:28:58.143Z,10.53
2022-11-25T03:29:58.091Z,10.44
2022-11-25T03:30:58.030Z,10.46
2022-11-25T03:31:58.034Z,10.53
2022-11-25T03:32:57.911Z,10.46
2022-11-25T03:33:57.853Z,10.42
2022-11-25T03:34:57.791Z,10.42
2022-11-25T03:35:57.737Z,10.52
2022-11-25T03:36:57.781Z,10.43
2022-11-25T03:37:57.615Z,10.44
2022-11-25T03:38:57.564Z,10.51
2022-11-25T03:39:57.502Z,10.51
2022-11-25T03:40:57.445Z,10.43
2022-11-25T03:41:57.389Z,10.43
2022-11-25T03:42:57.325Z,10.47
2022-11-25T03:43:57.272Z,10.46
2022-11-25T03:44:57.213Z,10.46
2022-11-25T03:45:57.182Z,10.47
2022-11-25T03:46:57.098Z,10.47
2022-11-25T03:47:57.034Z,10.47
2022-11-25T03:48:56.981Z,10.43
2022-11-25T03:49:56.915Z,10.51
2022-11-25T03:50:56.856Z,10.40
2022-11-25T03:51:56.798Z,10.44
2022-11-25T03:52:56.740Z,10.44
2022-11-25T03:53:56.687Z,10.52
2022-11-25T03:54:56.623Z,10.53
2022-11-25T03:55:56.564Z,10.36
2022-11-25T03:56:57.071Z,10.43
2022-11-25T03:57:58.093Z,10.39
2022-11-25T03:58:56.390Z,10.39
2022-11-25T03:59:56.342Z,10.36
2022-11-25T04:00:56.304Z,10.34
2022-11-25T04:01:56.249Z,10.34
2022-11-25T04:02:57.080Z,10.36
2022-11-25T04:03:56.100Z,10.34
2022-11-25T04:04:56.045Z,10.42
2022-11-25T04:05:55.983Z,10.37
2022-11-25T04:06:55.929Z,10.36
2022-11-25T04:07:58.047Z,10.37
2022-11-25T04:08:55.806Z,10.37
2022-11-25T04:09:55.749Z,10.36
2022-11-25T04:10:55.692Z,10.33
2022-11-25T04:11:55.636Z,10.33
2022-11-25T04:12:55.577Z,10.36
2022-11-25T04:13:55.518Z,10.36
2022-11-25T04:14:55.459Z,10.26
2022-11-25T04:15:55.404Z,10.36
2022-11-25T04:16:55.386Z,10.43
2022-11-25T04:17:55.285Z,10.42
2022-11-25T04:18:55.224Z,10.36
2022-11-25T04:19:55.164Z,10.33
2022-11-25T04:20:55.110Z,10.40
2022-11-25T04:21:55.045Z,10.36
2022-11-25T04:22:54.990Z,10.26
2022-11-25T04:23:54.933Z,10.36
2022-11-25T04:24:54.875Z,10.33
2022-11-25T04:25:54.814Z,10.32
2022-11-25T04:26:54.754Z,10.32
2022-11-25T04:27:54.700Z,10.33
2022-11-25T04:28:54.642Z,10.34
2022-11-25T04:29:54.580Z,10.36
2022-11-25T04:30:54.560Z,10.33
2022-11-25T04:31:54.475Z,10.39
2022-11-25T04:32:54.410Z,10.34
2022-11-25T04:33:54.343Z,10.37
2022-11-25T04:34:54.285Z,10.32
2022-11-25T04:35:54.228Z,10.33
2022-11-25T04:36:54.183Z,10.40
2022-11-25T04:37:54.116Z,10.33
2022-11-25T04:38:54.060Z,10.37
2022-11-25T04:39:53.998Z,10.42
2022-11-25T04:40:53.938Z,10.30
2022-11-25T04:41:53.879Z,10.32
2022-11-25T04:42:59.330Z,10.30
2022-11-25T04:43:53.765Z,10.34
2022-11-25T04:45:20.919Z,10.33
2022-11-25T04:46:53.618Z,10.36
2022-11-25T04:47:53.532Z,10.32
2022-11-25T04:48:53.475Z,10.28
2022-11-25T04:49:53.412Z,10.33
2022-11-25T04:50:53.358Z,10.34
2022-11-25T04:51:53.295Z,10.34
2022-11-25T04:52:53.235Z,10.33
2022-11-25T04:53:53.180Z,10.28
2022-11-25T04:54:53.118Z,10.28
2022-11-25T04:55:53.055Z,10.34
2022-11-25T04:56:53.003Z,10.34
2022-11-25T04:57:52.940Z,10.34
2022-11-25T04:58:52.882Z,10.30
2022-11-25T04:59:52.824Z,10.30
2022-11-25T05:00:52.817Z,10.32
2022-11-25T05:01:52.759Z,10.24
2022-11-25T05:02:52.688Z,10.30
2022-11-25T05:03:57.320Z,10.34
2022-11-25T05:04:52.538Z,10.28
2022-11-25T05:05:52.476Z,10.32
2022-11-25T05:06:52.419Z,10.25
2022-11-25T05:07:52.407Z,10.32
2022-11-25T05:08:52.302Z,10.28
2022-11-25T05:09:52.237Z,10.25
2022-11-25T05:10:52.179Z,10.26
2022-11-25T05:11:52.125Z,10.32
2022-11-25T05:12:52.065Z,10.30
2022-11-25T05:13:52.009Z,10.19
2022-11-25T05:14:51.945Z,10.26
2022-11-25T05:15:51.885Z,10.26
2022-11-25T05:16:51.892Z,10.22
2022-11-25T05:17:51.771Z,10.21
2022-11-25T05:18:51.711Z,10.25
2022-11-25T05:19:51.673Z,10.24
2022-11-25T05:20:51.601Z,10.25
2022-11-25T05:21:51.537Z,10.33
2022-11-25T05:22:51.480Z,10.24
2022-11-25T05:23:55.689Z,10.26
2022-11-25T05:24:51.360Z,10.30
2022-11-25T05:25:51.303Z,10.25
2022-11-25T05:26:51.248Z,10.18
2022-11-25T05:27:51.194Z,10.21
2022-11-25T05:28:51.126Z,10.25
2022-11-25T05:29:55.686Z,10.22
2022-11-25T05:30:51.032Z,10.22
2022-11-25T05:31:50.955Z,10.24
2022-11-25T05:32:50.961Z,10.24
2022-11-25T05:33:50.842Z,10.24
2022-11-25T05:34:50.779Z,10.15
2022-11-25T05:35:50.728Z,10.22
2022-11-25T05:36:50.666Z,10.24
2022-11-25T05:37:50.601Z,10.21
2022-11-25T05:38:50.545Z,10.19
2022-11-25T05:39:50.483Z,10.19
2022-11-25T05:40:50.429Z,10.21
2022-11-25T05:41:50.368Z,10.21
2022-11-25T05:42:50.307Z,10.12
2022-11-25T05:43:50.254Z,10.24
2022-11-25T05:44:50.194Z,10.15
2022-11-25T05:45:50.193Z,10.18
2022-11-25T05:46:50.071Z,10.09
2022-11-25T05:47:50.022Z,10.24
2022-11-25T05:48:49.961Z,10.12
2022-11-25T05:49:49.896Z,10.18
2022-11-25T05:50:49.847Z,10.18
2022-11-25T05:51:49.786Z,10.22
2022-11-25T05:52:49.720Z,10.24
2022-11-25T05:53:49.661Z,10.14
2022-11-25T05:54:52.214Z,10.22
2022-11-25T05:55:49.549Z,10.09
2022-11-25T05:56:49.489Z,10.17
2022-11-25T05:57:49.429Z,10.06
2022-11-25T05:58:49.373Z,10.21
2022-11-25T05:59:49.317Z,10.10
2022-11-25T06:00:49.257Z,10.12
2022-11-25T06:01:49.194Z,10.17
2022-11-25T06:02:49.239Z,10.14
2022-11-25T06:03:49.144Z,10.22
2022-11-25T06:04:49.029Z,10.12
2022-11-25T06:05:48.957Z,10.07
2022-11-25T06:06:48.914Z,10.12
2022-11-25T06:07:48.946Z,10.09
2022-11-25T06:08:48.788Z,10.14
2022-11-25T06:09:48.733Z,10.14
2022-11-25T06:10:48.668Z,10.12
2022-11-25T06:11:48.610Z,10.09
2022-11-25T06:12:48.552Z,10.10
2022-11-25T06:13:48.527Z,10.14
2022-11-25T06:14:48.430Z,10.14
2022-11-25T06:15:48.398Z,10.09
2022-11-25T06:16:48.327Z,10.12
2022-11-25T06:17:48.255Z,10.18
2022-11-25T06:18:48.203Z,10.14
2022-11-25T06:19:48.137Z,10.10
2022-11-25T06:20:48.082Z,10.09
2022-11-25T06:21:48.026Z,10.15
2022-11-25T06:22:47.969Z,10.14
2022-11-25T06:23:47.911Z,10.14
2022-11-25T06:24:56.448Z,10.09
2022-11-25T06:25:47.790Z,10.10
2022-11-25T06:26:47.733Z,10.12
2022-11-25T06:28:11.927Z,10.15
2022-11-25T06:28:47.614Z,10.04
2022-11-25T06:29:47.554Z,10.07
2022-11-25T06:30:47.567Z,10.14
2022-11-25T06:31:47.436Z,10.07
2022-11-25T06:32:47.379Z,10.07
2022-11-25T06:33:47.315Z,10.09
2022-11-25T06:34:48.110Z,10.12
2022-11-25T06:35:47.207Z,10.14
2022-11-25T06:36:47.147Z,10.19
2022-11-25T06:37:47.082Z,10.03
2022-11-25T06:38:47.025Z,10.12
2022-11-25T06:39:46.981Z,10.12
2022-11-25T06:40:46.930Z,10.07
2022-11-25T06:41:46.855Z,10.04
2022-11-25T06:42:46.795Z,10.15
2022-11-25T06:43:46.941Z,9.94
2022-11-25T06:44:46.676Z,10.00
2022-11-25T06:45:46.617Z,10.03
2022-11-25T06:46:46.633Z,10.09
2022-11-25T06:47:46.500Z,10.01
2022-11-25T06:48:46.439Z,10.12
2022-11-25T06:49:46.381Z,10.04
2022-11-25T06:50:46.329Z,10.04
2022-11-25T06:51:46.260Z,10.06
2022-11-25T06:52:46.202Z,10.00
2022-11-25T06:53:46.146Z,10.07
2022-11-25T06:54:46.084Z,10.07
2022-11-25T06:55:46.040Z,10.01
2022-11-25T06:56:45.970Z,10.00
2022-11-25T06:57:45.907Z,10.01
2022-11-25T06:58:45.857Z,10.01
2022-11-25T06:59:45.795Z,10.01
2022-11-25T07:00:45.739Z,10.01
2022-11-25T07:01:45.778Z,10.01
2022-11-25T07:02:48.722Z,10.07
2022-11-25T07:03:45.560Z,10.07
2022-11-25T07:04:45.502Z,10.01
2022-11-25T07:05:45.445Z,10.00
2022-11-25T07:06:45.381Z,10.03
2022-11-25T07:07:45.379Z,9.99
2022-11-25T07:08:45.264Z,10.00
2022-11-25T07:09:45.211Z,10.03
2022-11-25T07:10:45.150Z,10.09
2022-11-25T07:11:45.098Z,10.09
2022-11-25T07:12:45.034Z,10.07
2022-11-25T07:13:44.977Z,10.12
2022-11-25T07:14:44.912Z,10.09
2022-11-25T07:15:44.889Z,10.03
2022-11-25T07:16:44.798Z,10.00
2022-11-25T07:17:44.738Z,10.04
2022-11-25T07:18:44.675Z,10.09
2022-11-25T07:19:44.624Z,10.04
2022-11-25T07:20:44.562Z,9.96
2022-11-25T07:21:44.527Z,10.10
2022-11-25T07:22:44.440Z,10.14
2022-11-25T07:23:44.391Z,10.04
2022-11-25T07:24:44.324Z,10.01
2022-11-25T07:25:44.268Z,10.10
2022-11-25T07:26:44.212Z,10.15
2022-11-25T07:27:44.153Z,10.03
2022-11-25T07:28:44.089Z,10.06
2022-11-25T07:30:03.184Z,10.10
2022-11-25T07:31:43.915Z,10.07
2022-11-25T07:32:43.854Z,10.07
2022-11-25T07:33:43.826Z,10.04
2022-11-25T07:34:43.741Z,10.10
2022-11-25T07:35:43.686Z,10.01
2022-11-25T07:36:43.623Z,10.01
2022-11-25T07:37:43.570Z,10.07
2022-11-25T07:38:46.521Z,10.06
2022-11-25T07:39:43.445Z,10.03
2022-11-25T07:40:43.383Z,10.01
2022-11-25T07:41:43.333Z,10.01
2022-11-25T07:42:43.271Z,10.03
2022-11-25T07:43:43.219Z,9.97
2022-11-25T07:44:43.154Z,10.04
2022-11-25T07:45:43.095Z,10.01
2022-11-25T07:46:43.116Z,9.97
2022-11-25T07:47:42.972Z,10.01
2022-11-25T07:48:42.919Z,10.07
2022-11-25T07:49:42.858Z,9.93
2022-11-25T07:50:42.796Z,10.03
2022-11-25T07:51:42.737Z,10.03
2022-11-25T07:52:42.679Z,10.01
2022-11-25T07:53:42.630Z,10.00
2022-11-25T07:54:42.561Z,10.00
2022-11-25T07:55:42.503Z,9.97
2022-11-25T07:56:42.451Z,10.00
2022-11-25T07:57:42.395Z,10.00
2022-11-25T07:58:45.861Z,10.03
2022-11-25T07:59:42.282Z,10.00
2022-11-25T08:00:42.218Z,10.00
2022-11-25T08:01:42.248Z,10.09
2022-11-25T08:02:42.168Z,10.00
2022-11-25T08:03:42.038Z,10.09
2022-11-25T08:04:41.981Z,9.96
2022-11-25T08:05:41.922Z,9.97
2022-11-25T08:06:41.858Z,10.00
2022-11-25T08:07:41.925Z,10.01
2022-11-25T08:08:41.737Z,10.01
2022-11-25T08:09:42.637Z,10.00
2022-11-25T08:10:41.625Z,10.04
2022-11-25T08:11:41.575Z,9.97
2022-11-25T08:12:41.511Z,10.06
2022-11-25T08:13:41.447Z,10.00
2022-11-25T08:14:48.143Z,10.03
2022-11-25T08:15:41.376Z,10.00
2022-11-25T08:16:41.273Z,9.96
2022-11-25T08:17:41.221Z,10.00
2022-11-25T08:18:41.152Z,10.00
2022-11-25T08:19:41.170Z,10.01
2022-11-25T08:20:41.034Z,9.96
2022-11-25T08:21:40.983Z,10.03
2022-11-25T08:22:40.921Z,10.00
2022-11-25T08:23:40.856Z,10.09
2022-11-25T08:24:40.798Z,9.96
2022-11-25T08:25:40.746Z,9.97
2022-11-25T08:26:40.687Z,9.96
2022-11-25T08:27:40.697Z,10.00
2022-11-25T08:28:40.566Z,9.96
2022-11-25T08:29:40.505Z,10.06
2022-11-25T08:30:40.468Z,9.97
2022-11-25T08:31:40.429Z,9.96
2022-11-25T08:32:40.327Z,9.99
2022-11-25T08:33:40.272Z,10.04
2022-11-25T08:34:40.211Z,9.94
2022-11-25T08:35:40.152Z,9.99
2022-11-25T08:36:43.806Z,10.06
2022-11-25T08:37:40.129Z,10.03
2022-11-25T08:38:39.980Z,10.06
2022-11-25T08:39:56.121Z,9.96
2022-11-25T08:40:39.859Z,9.94
2022-11-25T08:41:39.890Z,10.00
2022-11-25T08:42:39.738Z,10.01
2022-11-25T08:43:39.689Z,10.00
2022-11-25T08:44:39.624Z,10.00
2022-11-25T08:45:39.565Z,10.00
2022-11-25T08:46:39.552Z,9.97
2022-11-25T08:47:39.505Z,10.00
2022-11-25T08:48:39.394Z,9.96
2022-11-25T08:49:41.560Z,9.97
2022-11-25T08:50:39.268Z,9.91
2022-11-25T08:51:39.214Z,10.06
2022-11-25T08:52:39.151Z,10.07
2022-11-25T08:53:39.099Z,10.01
2022-11-25T08:54:39.040Z,10.01
2022-11-25T08:55:38.978Z,10.09
2022-11-25T08:56:38.923Z,10.00
2022-11-25T08:57:45.645Z,9.99
2022-11-25T08:58:38.801Z,10.00
2022-11-25T08:59:39.052Z,10.04
2022-11-25T09:00:38.685Z,10.03
2022-11-25T09:01:38.645Z,9.91
2022-11-25T09:02:38.625Z,10.03
2022-11-25T09:03:38.505Z,10.06
2022-11-25T09:04:41.166Z,9.91
2022-11-25T09:05:38.398Z,9.97
2022-11-25T09:06:38.333Z,9.99
2022-11-25T09:07:38.320Z,10.04
2022-11-25T09:08:38.214Z,10.00
2022-11-25T09:09:38.658Z,10.01
2022-11-25T09:10:38.099Z,10.04
2022-11-25T09:11:38.126Z,10.07
2022-11-25T09:12:37.978Z,10.03
2022-11-25T09:13:37.966Z,10.06
2022-11-25T09:14:37.859Z,10.00
2022-11-25T09:15:37.935Z,10.06
2022-11-25T09:16:37.771Z,10.04
2022-11-25T09:17:37.691Z,10.06
2022-11-25T09:18:37.637Z,10.04
2022-11-25T09:19:37.861Z,10.06
2022-11-25T09:20:37.504Z,10.06
2022-11-25T09:21:37.452Z,10.04
2022-11-25T09:22:37.392Z,10.07
2022-11-25T09:23:38.113Z,10.06
2022-11-25T09:24:37.282Z,10.12
2022-11-25T09:25:37.211Z,10.01
2022-11-25T09:26:37.151Z,10.04
2022-11-25T09:27:37.099Z,10.12
2022-11-25T09:28:37.038Z,9.99
2022-11-25T09:29:37.280Z,10.04
2022-11-25T09:30:36.921Z,10.07
2022-11-25T09:31:36.972Z,10.07
2022-11-25T09:32:36.804Z,10.00
2022-11-25T09:33:36.756Z,10.00
2022-11-25T09:34:37.020Z,10.09
2022-11-25T09:35:36.627Z,10.09
2022-11-25T09:36:36.565Z,10.03
2022-11-25T09:37:36.505Z,10.06
2022-11-25T09:38:40.227Z,9.99
2022-11-25T09:39:36.735Z,10.10
2022-11-25T09:40:43.162Z,10.04
2022-11-25T09:41:36.276Z,10.12
2022-11-25T09:42:36.209Z,10.03
2022-11-25T09:43:36.151Z,10.15
2022-11-25T09:44:36.092Z,9.99
2022-11-25T09:45:36.046Z,10.09
2022-11-25T09:46:36.032Z,10.07
2022-11-25T09:47:35.920Z,10.04
2022-11-25T09:48:35.857Z,10.06
2022-11-25T09:49:36.004Z,10.06
2022-11-25T09:50:35.756Z,10.01
2022-11-25T09:51:35.686Z,10.04
2022-11-25T09:52:35.624Z,10.04
2022-11-25T09:53:35.654Z,10.03
2022-11-25T09:54:35.506Z,10.04
2022-11-25T09:55:35.451Z,10.06
2022-11-25T09:56:35.407Z,10.03
2022-11-25T09:57:35.335Z,10.06
2022-11-25T09:58:35.268Z,10.01
2022-11-25T09:59:38.444Z,10.06
2022-11-25T10:00:35.155Z,10.04
2022-11-25T10:01:35.095Z,10.03
2022-11-25T10:02:35.229Z,10.09
2022-11-25T10:03:35.030Z,10.03
2022-11-25T10:04:34.937Z,10.12
2022-11-25T10:05:34.869Z,10.03
2022-11-25T10:06:34.892Z,10.09
2022-11-25T10:07:34.746Z,10.01
2022-11-25T10:08:34.686Z,10.12
2022-11-25T10:09:35.124Z,10.00
2022-11-25T10:10:34.568Z,10.06
2022-11-25T10:11:34.509Z,10.12
2022-11-25T10:12:34.446Z,10.14
2022-11-25T10:13:34.394Z,10.10
2022-11-25T10:14:34.333Z,10.12
2022-11-25T10:15:34.272Z,10.10
2022-11-25T10:16:34.236Z,10.10
2022-11-25T10:17:34.163Z,10.07
2022-11-25T10:18:34.099Z,10.15
2022-11-25T10:19:34.427Z,10.12
2022-11-25T10:20:33.979Z,10.09
2022-11-25T10:21:33.917Z,10.09
2022-11-25T10:22:33.883Z,10.09
2022-11-25T10:23:33.808Z,10.10
2022-11-25T10:24:38.412Z,10.12
2022-11-25T10:25:33.683Z,10.12
2022-11-25T10:26:33.623Z,10.17
2022-11-25T10:27:33.569Z,10.09
2022-11-25T10:28:33.505Z,10.14
2022-11-25T10:29:33.451Z,10.15
2022-11-25T10:30:33.394Z,10.12
2022-11-25T10:31:33.397Z,10.14
2022-11-25T10:32:33.270Z,10.25
2022-11-25T10:33:33.219Z,10.09
2022-11-25T10:34:33.243Z,10.21
2022-11-25T10:35:33.101Z,10.18
2022-11-25T10:36:33.046Z,10.17
2022-11-25T10:37:32.981Z,10.18
2022-11-25T10:38:32.940Z,10.14
2022-11-25T10:39:32.858Z,10.18
2022-11-25T10:40:32.800Z,10.14
2022-11-25T10:41:32.746Z,10.17
2022-11-25T10:42:32.744Z,10.14
2022-11-25T10:43:32.642Z,10.09
2022-11-25T10:44:32.564Z,10.09
2022-11-25T10:45:32.512Z,10.07
2022-11-25T10:46:50.074Z,10.12
2022-11-25T10:47:32.443Z,10.17
2022-11-25T10:48:32.331Z,10.15
2022-11-25T10:49:32.272Z,10.14
2022-11-25T10:50:32.212Z,10.06
2022-11-25T10:51:32.154Z,10.12
2022-11-25T10:52:32.095Z,10.07
2022-11-25T10:53:32.036Z,10.22
2022-11-25T10:54:31.982Z,10.19
2022-11-25T10:55:31.923Z,10.19
2022-11-25T10:56:31.922Z,10.15
2022-11-25T10:57:31.801Z,10.17
2022-11-25T10:58:31.748Z,10.22
2022-11-25T10:59:31.686Z,10.12
2022-11-25T11:00:31.631Z,10.15
2022-11-25T11:01:31.621Z,10.17
2022-11-25T11:02:31.572Z,10.25
2022-11-25T11:03:31.449Z,10.17
2022-11-25T11:04:31.388Z,10.17
2022-11-25T11:05:31.336Z,10.25
2022-11-25T11:06:31.273Z,10.21
2022-11-25T11:07:31.300Z,10.22
2022-11-25T11:08:31.163Z,10.19
2022-11-25T11:09:31.100Z,10.19
2022-11-25T11:10:31.049Z,10.21
2022-11-25T11:11:30.979Z,10.19
2022-11-25T11:12:30.918Z,10.19
2022-11-25T11:13:30.869Z,10.21
2022-11-25T11:14:30.805Z,10.21
2022-11-25T11:15:30.744Z,10.21
2022-11-25T11:16:30.809Z,10.18
2022-11-25T11:17:34.778Z,10.21
2022-11-25T11:18:30.567Z,10.18
2022-11-25T11:19:30.514Z,10.28
2022-11-25T11:20:30.452Z,10.19
2022-11-25T11:21:30.396Z,10.18
2022-11-25T11:22:30.330Z,10.24
2022-11-25T11:23:30.278Z,10.24
2022-11-25T11:24:30.220Z,10.21
2022-11-25T11:25:30.158Z,10.18
2022-11-25T11:26:30.109Z,10.21
2022-11-25T11:27:30.035Z,10.22
2022-11-25T11:28:29.979Z,10.18
2022-11-25T11:29:29.925Z,10.22
2022-11-25T11:30:29.865Z,10.18
2022-11-25T11:31:29.880Z,10.25
2022-11-25T11:32:29.747Z,10.22
2022-11-25T11:33:29.688Z,10.24
2022-11-25T11:34:29.629Z,10.19
2022-11-25T11:35:29.571Z,10.21
2022-11-25T11:36:29.512Z,10.25
2022-11-25T11:37:29.451Z,10.25
2022-11-25T11:38:29.397Z,10.18
2022-11-25T11:39:29.335Z,10.24
2022-11-25T11:40:29.279Z,10.18
2022-11-25T11:41:29.216Z,10.19
2022-11-25T11:42:29.178Z,10.33
2022-11-25T11:43:29.107Z,10.32
2022-11-25T11:44:29.048Z,10.37
2022-11-25T11:45:28.990Z,10.22
2022-11-25T11:46:29.004Z,10.19
2022-11-25T11:47:28.869Z,10.25
2022-11-25T11:48:28.812Z,10.26
2022-11-25T11:49:30.696Z,10.30
2022-11-25T11:50:28.696Z,10.25
2022-11-25T11:51:28.626Z,10.30
2022-11-25T11:52:35.188Z,10.28
2022-11-25T11:53:28.516Z,10.28
2022-11-25T11:54:28.456Z,10.21
2022-11-25T11:55:28.392Z,10.25
2022-11-25T11:56:35.338Z,10.32
2022-11-25T11:57:28.278Z,10.30
2022-11-25T11:58:28.229Z,10.32
2022-11-25T11:59:28.172Z,10.25
2022-11-25T12:00:28.100Z,10.28
2022-11-25T12:01:28.043Z,10.34
2022-11-25T12:02:28.036Z,10.30
2022-11-25T12:03:28.004Z,10.30
2022-11-25T12:04:27.877Z,10.28
2022-11-25T12:05:27.806Z,10.28
2022-11-25T12:06:27.750Z,10.28
2022-11-25T12:07:27.750Z,10.34
2022-11-25T12:08:27.638Z,10.28
2022-11-25T12:09:27.617Z,10.26
2022-11-25T12:10:27.516Z,10.28
2022-11-25T12:11:27.456Z,10.32
2022-11-25T12:12:27.395Z,10.26
2022-11-25T12:13:27.344Z,10.33
2022-11-25T12:14:27.283Z,10.33
2022-11-25T12:15:27.217Z,10.28
2022-11-25T12:16:27.294Z,10.34
2022-11-25T12:17:27.100Z,10.26
2022-11-25T12:18:27.042Z,10.28
2022-11-25T12:19:26.984Z,10.34
2022-11-25T12:20:26.931Z,10.34
2022-11-25T12:21:26.929Z,10.26
2022-11-25T12:22:26.811Z,10.26
2022-11-25T12:23:26.751Z,10.26
2022-11-25T12:24:26.691Z,10.26
2022-11-25T12:25:26.635Z,10.34
2022-11-25T12:26:26.577Z,10.26
2022-11-25T12:27:26.520Z,10.28
2022-11-25T12:28:26.458Z,10.25
2022-11-25T12:29:26.401Z,10.34
2022-11-25T12:30:26.344Z,10.28
2022-11-25T12:31:26.322Z,10.34
2022-11-25T12:32:29.204Z,10.30
2022-11-25T12:33:26.160Z,10.26
2022-11-25T12:34:26.109Z,10.37
2022-11-25T12:35:26.046Z,10.34
2022-11-25T12:36:25.987Z,10.33
2022-11-25T12:37:25.927Z,10.32
2022-11-25T12:38:25.872Z,10.32
2022-11-25T12:39:25.808Z,10.28
2022-11-25T12:40:25.753Z,10.39
2022-11-25T12:41:25.698Z,10.30
2022-11-25T12:42:25.634Z,10.39
2022-11-25T12:43:25.579Z,10.26
2022-11-25T12:44:25.517Z,10.28
2022-11-25T12:45:25.492Z,10.30
2022-11-25T12:46:25.528Z,10.28
2022-11-25T12:47:25.338Z,10.34
2022-11-25T12:48:25.284Z,10.32
2022-11-25T12:49:25.234Z,10.26
2022-11-25T12:50:25.171Z,10.32
2022-11-25T12:51:25.104Z,10.32
2022-11-25T12:52:25.050Z,10.25
2022-11-25T12:53:24.991Z,10.32
2022-11-25T12:54:24.962Z,10.39